createdAt,value
2017-04-26T00:09:01.208Z,0
2017-04-26T00:19:01.174Z,0
2017-04-26T00:29:01.256Z,0
2017-04-26T00:39:01.148Z,0
2017-04-26T00:49:01.148Z,0
2017-04-26T00:59:01.140Z,0
2017-04-26T01:09:01.140Z,0
2017-04-26T01:19:01.154Z,0
2017-04-26T01:29:01.136Z,0
2017-04-26T01:39:01.255Z,0
2017-04-26T01:49:01.217Z,0
2017-04-26T01:59:01.139Z,0
2017-04-26T02:09:01.123Z,0
2017-04-26T02:19:01.134Z,0
2017-04-26T02:29:01.197Z,0
2017-04-26T02:39:01.152Z,0
2017-04-26T02:49:01.225Z,0
2017-04-26T02:59:01.150Z,0
2017-04-26T03:09:01.134Z,0
2017-04-26T03:19:01.108Z,0
2017-04-26T03:29:01.095Z,4
2017-04-26T03:39:01.229Z,4
2017-04-26T03:49:01.180Z,28
2017-04-26T03:59:01.126Z,100
2017-04-26T04:09:01.204Z,236
2017-04-26T04:19:01.081Z,516
2017-04-26T04:29:01.133Z,880
2017-04-26T04:39:01.101Z,1388
2017-04-26T04:49:01.135Z,1716
2017-04-26T04:59:01.094Z,2132
2017-04-26T05:09:01.167Z,3440
2017-04-26T05:19:01.137Z,4572
2017-04-26T05:29:01.072Z,6440
2017-04-26T05:39:01.153Z,5524
2017-04-26T05:49:01.119Z,4088
2017-04-26T05:59:01.116Z,5104
2017-04-26T06:09:01.077Z,6572
2017-04-26T06:19:01.093Z,9044
2017-04-26T06:29:01.055Z,7880
2017-04-26T06:39:01.120Z,11360
2017-04-26T06:49:01.141Z,9620
2017-04-26T06:59:01.056Z,8568
2017-04-26T07:09:01.093Z,10084
2017-04-26T07:19:01.071Z,14488
2017-04-26T07:29:01.330Z,11844
2017-04-26T07:39:01.090Z,19424
2017-04-26T07:49:01.058Z,21056
2017-04-26T07:59:01.098Z,35648
2017-04-26T08:09:01.148Z,16780
2017-04-26T08:19:01.136Z,68288
2017-04-26T08:29:01.085Z,66848
2017-04-26T08:39:01.068Z,58944
2017-04-26T08:49:01.098Z,13224
2017-04-26T08:59:01.063Z,15284
2017-04-26T09:09:01.077Z,13148
2017-04-26T09:19:01.141Z,5448
2017-04-26T09:29:01.082Z,9424
2017-04-26T09:39:01.076Z,12252
2017-04-26T09:49:01.104Z,10596
2017-04-26T09:59:01.060Z,14708
2017-04-26T10:09:01.117Z,11864
2017-04-26T10:19:01.064Z,13588
2017-04-26T10:29:08.426Z,15204
2017-04-26T10:39:01.085Z,20160
2017-04-26T10:49:01.141Z,16604
2017-04-26T10:59:01.184Z,18008
2017-04-26T11:09:01.093Z,16136
2017-04-26T11:19:01.104Z,17060
2017-04-26T11:29:01.164Z,18880
2017-04-26T11:39:01.056Z,17644
2017-04-26T11:49:01.221Z,9456
2017-04-26T11:59:01.090Z,5920
2017-04-26T12:09:01.068Z,9852
2017-04-26T12:19:05.590Z,17032
2017-04-26T12:29:01.249Z,18848
2017-04-26T12:39:01.078Z,10252
2017-04-26T12:49:01.105Z,9648
2017-04-26T12:59:01.135Z,4836
2017-04-26T13:09:01.070Z,5616
2017-04-26T13:19:01.096Z,9036
2017-04-26T13:29:01.115Z,7540
2017-04-26T13:39:01.121Z,10164
2017-04-26T13:49:01.159Z,10040
2017-04-26T13:59:01.126Z,9540
2017-04-26T14:09:01.077Z,7904
2017-04-26T14:19:01.275Z,6408
2017-04-26T14:29:01.134Z,8028
2017-04-26T14:39:01.310Z,9064
2017-04-26T14:49:01.143Z,9964
2017-04-26T14:59:01.099Z,6756
2017-04-26T15:09:01.103Z,4292
2017-04-26T15:19:01.116Z,3608
2017-04-26T15:29:01.199Z,3372
2017-04-26T15:39:01.067Z,3340
2017-04-26T15:49:01.104Z,3340
2017-04-26T15:59:01.094Z,3256
2017-04-26T16:09:01.108Z,3256
2017-04-26T16:19:01.126Z,3324
2017-04-26T16:29:01.200Z,3284
2017-04-26T16:39:01.164Z,3156
2017-04-26T16:49:01.084Z,2204
2017-04-26T16:59:01.104Z,1600
2017-04-26T17:09:01.122Z,1392
2017-04-26T17:19:01.065Z,1036
2017-04-26T17:29:01.095Z,1320
2017-04-26T17:39:01.103Z,1220
2017-04-26T17:49:01.036Z,1252
2017-04-26T17:59:01.196Z,1168
2017-04-26T18:09:01.067Z,716
2017-04-26T18:19:01.167Z,476
2017-04-26T18:29:01.061Z,420
2017-04-26T18:39:01.064Z,328
2017-04-26T18:49:01.109Z,132
2017-04-26T18:59:01.042Z,44
2017-04-26T19:09:01.039Z,12
2017-04-26T19:19:01.103Z,4
2017-04-26T19:29:01.057Z,4
2017-04-26T19:39:01.059Z,0
2017-04-26T19:49:01.151Z,0
2017-04-26T19:59:01.071Z,0
2017-04-26T20:09:01.126Z,0
2017-04-26T20:19:01.050Z,0
2017-04-26T20:29:01.074Z,0
2017-04-26T20:39:01.127Z,0
2017-04-26T20:49:01.050Z,0
2017-04-26T20:59:01.052Z,4
2017-04-26T21:09:01.141Z,4
2017-04-26T21:19:01.215Z,0
2017-04-26T21:29:01.143Z,0
2017-04-26T21:39:01.047Z,0
2017-04-26T21:49:01.189Z,4
2017-04-26T21:59:02.700Z,4
2017-04-26T22:09:01.044Z,0
2017-04-26T22:19:01.101Z,0
2017-04-26T22:29:01.024Z,0
2017-04-26T22:39:01.101Z,0
2017-04-26T22:49:01.100Z,0
2017-04-26T22:59:01.077Z,0
2017-04-26T23:09:01.016Z,0
2017-04-26T23:19:01.114Z,0
2017-04-26T23:29:00.984Z,0
2017-04-26T23:39:00.986Z,0
2017-04-26T23:49:01.074Z,0
2017-04-26T23:59:01.035Z,0
